sensor_id;sensor_type;location;lat;lon;timestamp;pressure;altitude;pressure_sealevel;temperature;humidity
46223;BME280;31943;51.410;7.564;2022-12-07T00:01:44;100313.72;;;5.66;74.32
46223;BME280;31943;51.410;7.564;2022-12-07T00:04:12;100312.22;;;5.73;74.04
46223;BME280;31943;51.410;7.564;2022-12-07T00:06:42;100314.63;;;5.68;73.99
46223;BME280;31943;51.410;7.564;2022-12-07T00:09:11;100313.72;;;5.66;74.15
46223;BME280;31943;51.410;7.564;2022-12-07T00:11:37;100313.53;;;5.60;74.29
46223;BME280;31943;51.410;7.564;2022-12-07T00:14:07;100311.22;;;5.69;74.18
46223;BME280;31943;51.410;7.564;2022-12-07T00:16:36;100314.75;;;5.71;74.28
46223;BME280;31943;51.410;7.564;2022-12-07T00:19:06;100312.06;;;5.68;74.36
46223;BME280;31943;51.410;7.564;2022-12-07T00:21:36;100306.16;;;5.72;74.17
46223;BME280;31943;51.410;7.564;2022-12-07T00:24:03;100308.88;;;5.77;74.04
46223;BME280;31943;51.410;7.564;2022-12-07T00:26:30;100314.06;;;5.77;73.82
46223;BME280;31943;51.410;7.564;2022-12-07T00:28:59;100311.53;;;5.79;74.16
46223;BME280;31943;51.410;7.564;2022-12-07T00:31:31;100304.69;;;5.81;73.70
46223;BME280;31943;51.410;7.564;2022-12-07T00:33:59;100302.22;;;5.85;73.79
46223;BME280;31943;51.410;7.564;2022-12-07T00:36:28;100309.13;;;5.85;74.00
46223;BME280;31943;51.410;7.564;2022-12-07T00:38:55;100309.97;;;5.85;73.56
46223;BME280;31943;51.410;7.564;2022-12-07T00:41:29;100305.56;;;5.81;73.66
46223;BME280;31943;51.410;7.564;2022-12-07T00:43:55;100297.03;;;5.85;73.99
46223;BME280;31943;51.410;7.564;2022-12-07T00:46:25;100306.69;;;5.91;73.85
46223;BME280;31943;51.410;7.564;2022-12-07T00:49:15;100289.50;;;5.93;73.71
46223;BME280;31943;51.410;7.564;2022-12-07T00:51:47;100293.56;;;5.85;73.84
46223;BME280;31943;51.410;7.564;2022-12-07T00:54:14;100297.13;;;5.88;73.49
46223;BME280;31943;51.410;7.564;2022-12-07T00:56:42;100288.69;;;5.94;73.49
46223;BME280;31943;51.410;7.564;2022-12-07T00:59:12;100287.13;;;5.99;73.68
46223;BME280;31943;51.410;7.564;2022-12-07T01:01:39;100289.69;;;5.99;73.66
46223;BME280;31943;51.410;7.564;2022-12-07T01:04:07;100280.84;;;5.92;73.50
46223;BME280;31943;51.410;7.564;2022-12-07T01:06:33;100275.34;;;5.82;73.87
46223;BME280;31943;51.410;7.564;2022-12-07T01:08:58;100282.88;;;5.74;74.07
46223;BME280;31943;51.410;7.564;2022-12-07T01:11:27;100288.84;;;5.71;74.26
46223;BME280;31943;51.410;7.564;2022-12-07T01:13:56;100285.56;;;5.77;74.18
46223;BME280;31943;51.410;7.564;2022-12-07T01:16:25;100284.84;;;5.81;73.81
46223;BME280;31943;51.410;7.564;2022-12-07T01:18:54;100288.47;;;5.88;73.85
46223;BME280;31943;51.410;7.564;2022-12-07T01:21:27;100280.75;;;5.89;73.71
46223;BME280;31943;51.410;7.564;2022-12-07T01:23:53;100288.44;;;5.86;73.67
46223;BME280;31943;51.410;7.564;2022-12-07T01:26:21;100286.72;;;5.87;73.73
46223;BME280;31943;51.410;7.564;2022-12-07T01:28:47;100282.28;;;5.83;73.72
46223;BME280;31943;51.410;7.564;2022-12-07T01:31:15;100283.13;;;5.82;73.91
46223;BME280;31943;51.410;7.564;2022-12-07T01:33:43;100286.63;;;5.84;74.20
46223;BME280;31943;51.410;7.564;2022-12-07T01:36:14;100281.59;;;5.88;73.92
46223;BME280;31943;51.410;7.564;2022-12-07T01:38:43;100289.31;;;5.87;73.63
46223;BME280;31943;51.410;7.564;2022-12-07T01:41:10;100284.88;;;5.83;73.92
46223;BME280;31943;51.410;7.564;2022-12-07T01:44:12;100279.78;;;5.86;73.72
46223;BME280;31943;51.410;7.564;2022-12-07T01:46:41;100283.13;;;5.82;73.84
46223;BME280;31943;51.410;7.564;2022-12-07T01:49:11;100284.94;;;5.84;74.13
46223;BME280;31943;51.410;7.564;2022-12-07T01:51:41;100282.28;;;5.83;73.86
46223;BME280;31943;51.410;7.564;2022-12-07T01:54:13;100283.97;;;5.81;74.37
46223;BME280;31943;51.410;7.564;2022-12-07T01:56:42;100286.59;;;5.82;74.14
46223;BME280;31943;51.410;7.564;2022-12-07T01:59:13;100285.00;;;5.87;74.04
46223;BME280;31943;51.410;7.564;2022-12-07T02:01:40;100280.91;;;5.94;74.18
46223;BME280;31943;51.410;7.564;2022-12-07T02:04:07;100286.09;;;5.94;73.75
46223;BME280;31943;51.410;7.564;2022-12-07T02:06:37;100275.78;;;5.96;74.08
46223;BME280;31943;51.410;7.564;2022-12-07T02:09:04;100279.88;;;5.89;74.39
46223;BME280;31943;51.410;7.564;2022-12-07T02:11:36;100279.13;;;5.93;73.98
46223;BME280;31943;51.410;7.564;2022-12-07T02:14:03;100274.09;;;5.96;74.20
46223;BME280;31943;51.410;7.564;2022-12-07T02:16:38;100271.50;;;5.96;73.98
46223;BME280;31943;51.410;7.564;2022-12-07T02:19:36;100269.09;;;6.02;74.01
46223;BME280;31943;51.410;7.564;2022-12-07T02:22:17;100265.31;;;5.92;73.99
46223;BME280;31943;51.410;7.564;2022-12-07T02:24:58;100264.47;;;5.93;73.84
46223;BME280;31943;51.410;7.564;2022-12-07T02:27:52;100264.44;;;5.92;73.84
46223;BME280;31943;51.410;7.564;2022-12-07T02:30:31;100263.41;;;5.87;74.38
46223;BME280;31943;51.410;7.564;2022-12-07T02:33:03;100268.78;;;5.93;74.29
46223;BME280;31943;51.410;7.564;2022-12-07T02:35:39;100273.25;;;5.97;73.95
46223;BME280;31943;51.410;7.564;2022-12-07T02:38:16;100273.28;;;5.99;73.84
46223;BME280;31943;51.410;7.564;2022-12-07T02:40:47;100274.09;;;5.96;74.00
46223;BME280;31943;51.410;7.564;2022-12-07T02:43:19;100278.66;;;6.05;73.69
46223;BME280;31943;51.410;7.564;2022-12-07T02:45:52;100276.97;;;6.07;73.87
46223;BME280;31943;51.410;7.564;2022-12-07T02:48:21;100273.59;;;6.09;73.37
46223;BME280;31943;51.410;7.564;2022-12-07T02:50:49;100274.38;;;6.07;73.28
46223;BME280;31943;51.410;7.564;2022-12-07T02:53:34;100273.56;;;6.08;73.19
46223;BME280;31943;51.410;7.564;2022-12-07T02:56:07;100277.06;;;6.10;73.26
46223;BME280;31943;51.410;7.564;2022-12-07T02:58:46;100275.84;;;5.97;73.57
46223;BME280;31943;51.410;7.564;2022-12-07T03:01:28;100280.19;;;5.98;73.44
46223;BME280;31943;51.410;7.564;2022-12-07T03:04:02;100279.44;;;6.02;73.35
46223;BME280;31943;51.410;7.564;2022-12-07T03:06:38;100276.75;;;5.99;73.21
46223;BME280;31943;51.410;7.564;2022-12-07T03:09:13;100275.00;;;5.98;73.09
46223;BME280;31943;51.410;7.564;2022-12-07T03:11:46;100273.25;;;5.97;73.17
46223;BME280;31943;51.410;7.564;2022-12-07T03:14:18;100273.09;;;5.92;73.45
46223;BME280;31943;51.410;7.564;2022-12-07T03:17:05;100266.34;;;5.98;73.25
46223;BME280;31943;51.410;7.564;2022-12-07T03:19:39;100263.84;;;6.01;73.04
46223;BME280;31943;51.410;7.564;2022-12-07T03:22:13;100259.69;;;6.06;73.25
46223;BME280;31943;51.410;7.564;2022-12-07T03:24:51;100266.66;;;6.08;72.88
46223;BME280;31943;51.410;7.564;2022-12-07T03:27:22;100265.69;;;6.05;72.94
46223;BME280;31943;51.410;7.564;2022-12-07T03:29:54;100269.84;;;6.00;72.85
46223;BME280;31943;51.410;7.564;2022-12-07T03:32:36;100268.28;;;6.05;72.91
46223;BME280;31943;51.410;7.564;2022-12-07T03:35:14;100263.97;;;6.05;72.75
46223;BME280;31943;51.410;7.564;2022-12-07T03:37:47;100266.63;;;6.07;72.58
46223;BME280;31943;51.410;7.564;2022-12-07T03:40:21;100266.56;;;6.05;72.58
46223;BME280;31943;51.410;7.564;2022-12-07T03:42:48;100272.66;;;6.06;72.67
46223;BME280;31943;51.410;7.564;2022-12-07T03:45:18;100262.00;;;5.97;72.29
46223;BME280;31943;51.410;7.564;2022-12-07T03:47:53;100269.66;;;5.93;72.21
46223;BME280;31943;51.410;7.564;2022-12-07T03:50:29;100266.06;;;5.88;72.49
46223;BME280;31943;51.410;7.564;2022-12-07T03:53:01;100266.59;;;5.78;72.46
46223;BME280;31943;51.410;7.564;2022-12-07T03:55:34;100263.94;;;5.75;72.51
46223;BME280;31943;51.410;7.564;2022-12-07T03:58:12;100269.13;;;5.75;72.53
46223;BME280;31943;51.410;7.564;2022-12-07T04:00:43;100269.06;;;5.73;72.47
46223;BME280;31943;51.410;7.564;2022-12-07T04:03:23;100261.22;;;5.70;72.23
46223;BME280;31943;51.410;7.564;2022-12-07T04:05:55;100265.19;;;5.59;72.40
46223;BME280;31943;51.410;7.564;2022-12-07T04:08:21;100265.19;;;5.59;72.61
46223;BME280;31943;51.410;7.564;2022-12-07T04:10:58;100269.00;;;5.72;72.41
46223;BME280;31943;51.410;7.564;2022-12-07T04:13:27;100265.44;;;5.67;72.33
46223;BME280;31943;51.410;7.564;2022-12-07T04:15:53;100268.16;;;5.71;72.23
46223;BME280;31943;51.410;7.564;2022-12-07T04:18:23;100271.59;;;5.70;71.76
46223;BME280;31943;51.410;7.564;2022-12-07T04:20:50;100269.69;;;5.66;71.96
46223;BME280;31943;51.410;7.564;2022-12-07T04:23:16;100266.00;;;5.58;72.24
46223;BME280;31943;51.410;7.564;2022-12-07T04:25:43;100259.16;;;5.59;72.10
46223;BME280;31943;51.410;7.564;2022-12-07T04:28:10;100266.91;;;5.59;72.29
46223;BME280;31943;51.410;7.564;2022-12-07T04:30:38;100265.09;;;5.56;72.02
46223;BME280;31943;51.410;7.564;2022-12-07T04:33:04;100270.09;;;5.50;72.02
46223;BME280;31943;51.410;7.564;2022-12-07T04:35:31;100270.81;;;5.46;72.22
46223;BME280;31943;51.410;7.564;2022-12-07T04:37:58;100263.09;;;5.47;72.20
46223;BME280;31943;51.410;7.564;2022-12-07T04:40:25;100258.69;;;5.45;72.21
46223;BME280;31943;51.410;7.564;2022-12-07T04:42:51;100266.34;;;5.40;72.39
46223;BME280;31943;51.410;7.564;2022-12-07T04:45:18;100258.56;;;5.40;72.28
46223;BME280;31943;51.410;7.564;2022-12-07T04:47:44;100256.84;;;5.41;72.19
46223;BME280;31943;51.410;7.564;2022-12-07T04:50:10;100267.84;;;5.33;72.84
46223;BME280;31943;51.410;7.564;2022-12-07T04:52:40;100262.13;;;5.44;72.58
46223;BME280;31943;51.410;7.564;2022-12-07T04:55:06;100264.91;;;5.50;72.55
46223;BME280;31943;51.410;7.564;2022-12-07T04:57:31;100263.16;;;5.49;72.21
46223;BME280;31943;51.410;7.564;2022-12-07T04:59:58;100254.59;;;5.51;72.22
46223;BME280;31943;51.410;7.564;2022-12-07T05:02:24;100256.44;;;5.55;72.07
46223;BME280;31943;51.410;7.564;2022-12-07T05:04:50;100263.41;;;5.58;72.15
46223;BME280;31943;51.410;7.564;2022-12-07T05:07:18;100257.38;;;5.58;72.04
46223;BME280;31943;51.410;7.564;2022-12-07T05:09:46;100250.34;;;5.53;72.06
46223;BME280;31943;51.410;7.564;2022-12-07T05:12:12;100259.84;;;5.54;72.34
46223;BME280;31943;51.410;7.564;2022-12-07T05:14:38;100250.53;;;5.60;71.99
46223;BME280;31943;51.410;7.564;2022-12-07T05:17:05;100255.75;;;5.61;72.02
46223;BME280;31943;51.410;7.564;2022-12-07T05:19:30;100249.72;;;5.61;71.98
46223;BME280;31943;51.410;7.564;2022-12-07T05:21:57;100253.00;;;5.57;72.08
46223;BME280;31943;51.410;7.564;2022-12-07T05:24:23;100252.19;;;5.58;71.86
46223;BME280;31943;51.410;7.564;2022-12-07T05:26:50;100253.25;;;5.64;71.78
46223;BME280;31943;51.410;7.564;2022-12-07T05:29:17;100257.66;;;5.67;71.80
46223;BME280;31943;51.410;7.564;2022-12-07T05:31:43;100255.06;;;5.67;71.33
46223;BME280;31943;51.410;7.564;2022-12-07T05:34:10;100258.59;;;5.69;71.53
46223;BME280;31943;51.410;7.564;2022-12-07T05:36:37;100247.38;;;5.70;71.68
46223;BME280;31943;51.410;7.564;2022-12-07T05:39:03;100252.59;;;5.71;71.37
46223;BME280;31943;51.410;7.564;2022-12-07T05:41:29;100256.97;;;5.72;71.15
46223;BME280;31943;51.410;7.564;2022-12-07T05:43:57;100248.31;;;5.72;71.46
46223;BME280;31943;51.410;7.564;2022-12-07T05:46:23;100247.31;;;5.68;71.57
46223;BME280;31943;51.410;7.564;2022-12-07T05:48:50;100245.72;;;5.72;71.36
46223;BME280;31943;51.410;7.564;2022-12-07T05:51:19;100244.03;;;5.72;71.31
46223;BME280;31943;51.410;7.564;2022-12-07T05:53:45;100249.19;;;5.72;71.44
46223;BME280;31943;51.410;7.564;2022-12-07T05:56:11;100249.97;;;5.70;71.39
46223;BME280;31943;51.410;7.564;2022-12-07T05:58:37;100241.34;;;5.69;71.49
46223;BME280;31943;51.410;7.564;2022-12-07T06:01:05;100241.22;;;5.66;71.54
46223;BME280;31943;51.410;7.564;2022-12-07T06:03:31;100246.22;;;5.59;71.43
46223;BME280;31943;51.410;7.564;2022-12-07T06:05:57;100245.22;;;5.55;71.78
46223;BME280;31943;51.410;7.564;2022-12-07T06:08:22;100247.72;;;5.52;71.79
46223;BME280;31943;51.410;7.564;2022-12-07T06:10:50;100251.38;;;5.59;71.53
46223;BME280;31943;51.410;7.564;2022-12-07T06:13:17;100249.72;;;5.61;71.42
46223;BME280;31943;51.410;7.564;2022-12-07T07:33:40;100270.59;;;5.38;71.44
46223;BME280;31943;51.410;7.564;2022-12-07T07:36:19;100274.00;;;5.37;71.53
46223;BME280;31943;51.410;7.564;2022-12-07T07:38:56;100274.94;;;5.39;71.59
46223;BME280;31943;51.410;7.564;2022-12-07T07:41:24;100275.47;;;5.29;71.55
46223;BME280;31943;51.410;7.564;2022-12-07T10:31:22;100265.09;;;5.56;70.42
46223;BME280;31943;51.410;7.564;2022-12-07T10:33:55;100261.91;;;5.65;70.20
46223;BME280;31943;51.410;7.564;2022-12-07T10:47:49;100258.34;;;5.61;70.31
46223;BME280;31943;51.410;7.564;2022-12-07T10:50:37;100251.38;;;5.59;69.98
46223;BME280;31943;51.410;7.564;2022-12-07T10:53:23;100248.19;;;5.67;70.29
46223;BME280;31943;51.410;7.564;2022-12-07T10:56:10;100251.03;;;5.77;69.90
46223;BME280;31943;51.410;7.564;2022-12-07T11:06:47;100238.44;;;5.89;69.41
46223;BME280;31943;51.410;7.564;2022-12-07T11:09:49;100238.88;;;6.03;69.28
46223;BME280;31943;51.410;7.564;2022-12-07T11:23:25;100220.72;;;6.03;68.68
46223;BME280;31943;51.410;7.564;2022-12-07T11:26:03;100222.41;;;6.01;69.02
46223;BME280;31943;51.410;7.564;2022-12-07T11:28:53;100212.16;;;6.04;68.57
46223;BME280;31943;51.410;7.564;2022-12-07T11:53:58;100193.47;;;6.16;68.40
46223;BME280;31943;51.410;7.564;2022-12-07T11:56:35;100198.88;;;6.25;68.33
46223;BME280;31943;51.410;7.564;2022-12-07T11:59:10;100195.63;;;6.32;67.95
46223;BME280;31943;51.410;7.564;2022-12-07T12:01:45;100191.25;;;6.31;68.28
46223;BME280;31943;51.410;7.564;2022-12-07T12:04:25;100187.72;;;6.27;68.14
46223;BME280;31943;51.410;7.564;2022-12-07T12:06:55;100184.22;;;6.25;68.06
46223;BME280;31943;51.410;7.564;2022-12-07T12:09:32;100186.06;;;6.29;67.82
46223;BME280;31943;51.410;7.564;2022-12-07T12:12:24;100189.53;;;6.30;68.10
46223;BME280;31943;51.410;7.564;2022-12-07T12:15:09;100192.16;;;6.31;67.61
46223;BME280;31943;51.410;7.564;2022-12-07T12:18:05;100184.94;;;6.21;67.62
46223;BME280;31943;51.410;7.564;2022-12-07T12:20:40;100187.59;;;6.23;67.91
46223;BME280;31943;51.410;7.564;2022-12-07T12:23:10;100185.81;;;6.20;68.33
46223;BME280;31943;51.410;7.564;2022-12-07T12:25:43;100185.13;;;6.27;67.99
46223;BME280;31943;51.410;7.564;2022-12-07T12:28:25;100190.47;;;6.33;68.06
46223;BME280;31943;51.410;7.564;2022-12-07T12:31:35;100178.38;;;6.34;68.01
46223;BME280;31943;51.410;7.564;2022-12-07T12:36:53;100166.25;;;6.31;68.02
46223;BME280;31943;51.410;7.564;2022-12-07T12:39:22;100166.50;;;6.42;67.68
46223;BME280;31943;51.410;7.564;2022-12-07T12:42:02;100169.22;;;6.47;67.47
46223;BME280;31943;51.410;7.564;2022-12-07T12:45:05;100164.09;;;6.50;67.26
46223;BME280;31943;51.410;7.564;2022-12-07T12:47:57;100163.28;;;6.52;67.08
46223;BME280;31943;51.410;7.564;2022-12-07T12:50:29;100156.28;;;6.48;67.19
46223;BME280;31943;51.410;7.564;2022-12-07T12:53:26;100164.09;;;6.50;66.96
46223;BME280;31943;51.410;7.564;2022-12-07T13:01:59;100147.16;;;6.64;67.25
46223;BME280;31943;51.410;7.564;2022-12-07T13:04:54;100149.81;;;6.66;67.41
46223;BME280;31943;51.410;7.564;2022-12-07T13:10:41;100145.47;;;6.65;67.31
46223;BME280;31943;51.410;7.564;2022-12-07T13:13:33;100144.75;;;6.70;66.94
46223;BME280;31943;51.410;7.564;2022-12-07T13:22:47;100146.81;;;6.49;67.35
46223;BME280;31943;51.410;7.564;2022-12-07T13:25:37;100141.63;;;6.49;67.19
46223;BME280;31943;51.410;7.564;2022-12-07T13:28:15;100138.84;;;6.43;67.57
46223;BME280;31943;51.410;7.564;2022-12-07T13:30:51;100134.47;;;6.40;67.50
46223;BME280;31943;51.410;7.564;2022-12-07T13:33:20;100125.78;;;6.38;67.55
46223;BME280;31943;51.410;7.564;2022-12-07T13:35:59;100133.56;;;6.38;67.93
46223;BME280;31943;51.410;7.564;2022-12-07T13:38:34;100138.84;;;6.43;67.55
46223;BME280;31943;51.410;7.564;2022-12-07T13:41:02;100128.47;;;6.41;67.58
46223;BME280;31943;51.410;7.564;2022-12-07T13:43:27;100118.88;;;6.37;67.94
46223;BME280;31943;51.410;7.564;2022-12-07T13:45:56;100122.34;;;6.38;67.92
46223;BME280;31943;51.410;7.564;2022-12-07T13:48:29;100112.72;;;6.33;67.84
46223;BME280;31943;51.410;7.564;2022-12-07T13:50:58;100118.88;;;6.37;67.66
46223;BME280;31943;51.410;7.564;2022-12-07T13:53:37;100109.44;;;6.41;67.84
46223;BME280;31943;51.410;7.564;2022-12-07T14:11:08;100092.28;;;6.46;67.18
46223;BME280;31943;51.410;7.564;2022-12-07T14:13:51;100093.13;;;6.45;67.17
46223;BME280;31943;51.410;7.564;2022-12-07T14:16:24;100091.28;;;6.39;67.24
46223;BME280;31943;51.410;7.564;2022-12-07T14:18:51;100091.22;;;6.38;67.21
46223;BME280;31943;51.410;7.564;2022-12-07T14:21:20;100087.94;;;6.45;67.50
46223;BME280;31943;51.410;7.564;2022-12-07T14:24:06;100090.59;;;6.48;67.30
46223;BME280;31943;51.410;7.564;2022-12-07T14:26:50;100086.16;;;6.42;67.35
46223;BME280;31943;51.410;7.564;2022-12-07T14:29:29;100075.91;;;6.48;67.24
46223;BME280;31943;51.410;7.564;2022-12-07T14:31:56;100074.38;;;6.55;67.54
46223;BME280;31943;51.410;7.564;2022-12-07T14:34:23;100072.72;;;6.59;67.02
46223;BME280;31943;51.410;7.564;2022-12-07T14:36:49;100071.31;;;6.35;67.03
46223;BME280;31943;51.410;7.564;2022-12-07T14:39:16;100088.44;;;6.30;67.15
46223;BME280;31943;51.410;7.564;2022-12-07T14:41:43;100096.19;;;6.28;67.10
46223;BME280;31943;51.410;7.564;2022-12-07T14:44:12;100099.28;;;6.13;67.51
46223;BME280;31943;51.410;7.564;2022-12-07T14:46:41;100090.03;;;5.91;68.13
46223;BME280;31943;51.410;7.564;2022-12-07T14:49:08;100089.88;;;5.85;68.63
46223;BME280;31943;51.410;7.564;2022-12-07T14:51:39;100092.19;;;5.74;69.12
46223;BME280;31943;51.410;7.564;2022-12-07T14:54:14;100088.69;;;5.72;68.96
46223;BME280;31943;51.410;7.564;2022-12-07T14:56:41;100092.03;;;5.70;69.02
46223;BME280;31943;51.410;7.564;2022-12-07T14:59:16;100087.72;;;5.69;68.93
46223;BME280;31943;51.410;7.564;2022-12-07T15:01:42;100084.16;;;5.65;69.01
46223;BME280;31943;51.410;7.564;2022-12-07T15:04:10;100083.50;;;5.72;69.02
46223;BME280;31943;51.410;7.564;2022-12-07T15:06:35;100075.03;;;5.80;68.90
46223;BME280;31943;51.410;7.564;2022-12-07T15:09:02;100066.50;;;5.82;69.23
46223;BME280;31943;51.410;7.564;2022-12-07T15:11:28;100064.16;;;5.93;68.86
46223;BME280;31943;51.410;7.564;2022-12-07T15:13:57;100069.59;;;6.01;68.88
46223;BME280;31943;51.410;7.564;2022-12-07T15:16:30;100069.78;;;6.08;68.42
46223;BME280;31943;51.410;7.564;2022-12-07T15:19:03;100061.19;;;6.11;68.82
46223;BME280;31943;51.410;7.564;2022-12-07T15:21:38;100063.88;;;6.14;68.46
46223;BME280;31943;51.410;7.564;2022-12-07T15:24:05;100061.38;;;6.19;68.34
46223;BME280;31943;51.410;7.564;2022-12-07T15:26:30;100058.03;;;6.23;68.33
46223;BME280;31943;51.410;7.564;2022-12-07T15:29:02;100063.31;;;6.26;68.04
46223;BME280;31943;51.410;7.564;2022-12-07T15:31:33;100059.84;;;6.25;68.18
46223;BME280;31943;51.410;7.564;2022-12-07T15:33:59;100063.25;;;6.24;67.86
46223;BME280;31943;51.410;7.564;2022-12-07T15:36:30;100060.63;;;6.23;68.03
46223;BME280;31943;51.410;7.564;2022-12-07T15:38:57;100062.31;;;6.21;67.65
46223;BME280;31943;51.410;7.564;2022-12-07T15:41:23;100053.63;;;6.19;67.55
46223;BME280;31943;51.410;7.564;2022-12-07T15:43:49;100058.03;;;6.23;67.44
46223;BME280;31943;51.410;7.564;2022-12-07T15:46:14;100055.44;;;6.23;67.22
46223;BME280;31943;51.410;7.564;2022-12-07T15:48:42;100055.41;;;6.21;67.60
46223;BME280;31943;51.410;7.564;2022-12-07T15:51:11;100056.25;;;6.20;67.54
46223;BME280;31943;51.410;7.564;2022-12-07T15:53:37;100050.97;;;6.17;67.48
46223;BME280;31943;51.410;7.564;2022-12-07T15:56:05;100055.25;;;6.13;67.75
46223;BME280;31943;51.410;7.564;2022-12-07T16:17:52;100030.34;;;5.87;68.58
46223;BME280;31943;51.410;7.564;2022-12-07T16:20:19;100042.28;;;5.82;68.39
46223;BME280;31943;51.410;7.564;2022-12-07T16:22:46;100030.97;;;5.77;68.73
46223;BME280;31943;51.410;7.564;2022-12-07T16:25:13;100029.19;;;5.75;68.51
46223;BME280;31943;51.410;7.564;2022-12-07T16:27:38;100024.16;;;5.82;68.97
46223;BME280;31943;51.410;7.564;2022-12-07T16:30:07;100025.16;;;5.87;68.54
46223;BME280;31943;51.410;7.564;2022-12-07T16:32:34;100025.94;;;5.83;68.86
46223;BME280;31943;51.410;7.564;2022-12-07T16:35:00;100027.59;;;5.81;68.74
46223;BME280;31943;51.410;7.564;2022-12-07T16:37:26;100036.28;;;5.83;68.84
46223;BME280;31943;51.410;7.564;2022-12-07T16:39:52;100029.44;;;5.85;68.63
46223;BME280;31943;51.410;7.564;2022-12-07T16:42:18;100035.28;;;5.78;68.82
46223;BME280;31943;51.410;7.564;2022-12-07T16:44:44;100037.81;;;5.74;68.92
46223;BME280;31943;51.410;7.564;2022-12-07T16:47:12;100036.91;;;5.72;69.16
46223;BME280;31943;51.410;7.564;2022-12-07T16:49:38;100035.13;;;5.71;68.95
46223;BME280;31943;51.410;7.564;2022-12-07T16:52:04;100028.00;;;5.63;69.24
46223;BME280;31943;51.410;7.564;2022-12-07T16:54:30;100024.63;;;5.65;69.18
46223;BME280;31943;51.410;7.564;2022-12-07T16:56:55;100018.53;;;5.63;69.56
46223;BME280;31943;51.410;7.564;2022-12-07T16:59:21;100018.47;;;5.62;69.38
46223;BME280;31943;51.410;7.564;2022-12-07T17:01:47;100011.81;;;5.71;69.24
46223;BME280;31943;51.410;7.564;2022-12-07T17:04:15;100011.22;;;5.80;69.25
46223;BME280;31943;51.410;7.564;2022-12-07T17:06:40;100007.84;;;5.84;68.87
46223;BME280;31943;51.410;7.564;2022-12-07T17:09:06;100010.41;;;5.83;69.21
46223;BME280;31943;51.410;7.564;2022-12-07T17:11:32;100003.44;;;5.80;69.29
46223;BME280;31943;51.410;7.564;2022-12-07T17:13:58;100006.84;;;5.79;69.19
46223;BME280;31943;51.410;7.564;2022-12-07T17:16:24;100006.84;;;5.79;69.53
46223;BME280;31943;51.410;7.564;2022-12-07T17:18:50;100001.56;;;5.74;69.37
46223;BME280;31943;51.410;7.564;2022-12-07T17:21:21;99990.91;;;5.64;69.75
46223;BME280;31943;51.410;7.564;2022-12-07T17:23:47;99996.13;;;5.65;69.79
46223;BME280;31943;51.410;7.564;2022-12-07T17:26:26;99990.31;;;5.74;69.57
46223;BME280;31943;51.410;7.564;2022-12-07T17:28:53;99987.09;;;5.83;69.73
46223;BME280;31943;51.410;7.564;2022-12-07T17:31:27;99986.38;;;5.90;69.51
46223;BME280;31943;51.410;7.564;2022-12-07T17:33:55;99990.84;;;5.94;69.45
46223;BME280;31943;51.410;7.564;2022-12-07T17:36:33;99988.44;;;6.02;69.08
46223;BME280;31943;51.410;7.564;2022-12-07T17:39:17;99984.16;;;6.02;69.07
46223;BME280;31943;51.410;7.564;2022-12-07T17:41:44;99979.84;;;6.03;69.17
46223;BME280;31943;51.410;7.564;2022-12-07T17:44:17;99984.34;;;6.10;69.27
46223;BME280;31943;51.410;7.564;2022-12-07T17:46:44;99974.88;;;6.12;69.08
46223;BME280;31943;51.410;7.564;2022-12-07T17:49:37;99975.75;;;6.12;69.16
46223;BME280;31943;51.410;7.564;2022-12-07T17:52:44;99969.63;;;6.09;68.88
46223;BME280;31943;51.410;7.564;2022-12-07T17:55:14;99971.06;;;5.98;69.06
46223;BME280;31943;51.410;7.564;2022-12-07T17:58:12;99977.88;;;5.94;69.31
46223;BME280;31943;51.410;7.564;2022-12-07T18:00:41;99974.34;;;5.90;69.14
46223;BME280;31943;51.410;7.564;2022-12-07T18:03:48;99970.28;;;6.00;69.33
46223;BME280;31943;51.410;7.564;2022-12-07T18:06:54;99961.69;;;6.03;69.18
46223;BME280;31943;51.410;7.564;2022-12-07T18:34:04;99968.06;;;5.81;68.85
46223;BME280;31943;51.410;7.564;2022-12-07T18:36:30;99964.41;;;5.72;68.85
46223;BME280;31943;51.410;7.564;2022-12-07T18:38:56;99963.00;;;5.52;68.88
46223;BME280;31943;51.410;7.564;2022-12-07T18:41:22;99962.75;;;5.41;69.28
46223;BME280;31943;51.410;7.564;2022-12-07T18:43:48;99952.50;;;5.46;69.51
46223;BME280;31943;51.410;7.564;2022-12-07T18:46:16;99950.88;;;5.49;69.43
46223;BME280;31943;51.410;7.564;2022-12-07T18:48:42;99953.53;;;5.52;69.69
46223;BME280;31943;51.410;7.564;2022-12-07T18:51:12;99947.69;;;5.60;69.56
46223;BME280;31943;51.410;7.564;2022-12-07T18:53:38;99944.38;;;5.65;69.82
46223;BME280;31943;51.410;7.564;2022-12-07T18:56:12;99946.38;;;5.77;69.57
46223;BME280;31943;51.410;7.564;2022-12-07T18:58:42;99943.97;;;5.85;69.60
46223;BME280;31943;51.410;7.564;2022-12-07T19:01:07;99942.41;;;5.91;69.35
46223;BME280;31943;51.410;7.564;2022-12-07T19:03:41;99929.63;;;5.96;69.66
46223;BME280;31943;51.410;7.564;2022-12-07T19:06:13;99929.72;;;6.01;69.61
46223;BME280;31943;51.410;7.564;2022-12-07T19:08:38;99930.72;;;6.06;69.67
46223;BME280;31943;51.410;7.564;2022-12-07T19:11:05;99937.66;;;6.08;69.00
46223;BME280;31943;51.410;7.564;2022-12-07T19:13:30;99939.44;;;6.11;69.38
46223;BME280;31943;51.410;7.564;2022-12-07T19:15:56;99942.03;;;6.11;68.90
46223;BME280;31943;51.410;7.564;2022-12-07T19:18:22;99932.53;;;6.10;69.12
46223;BME280;31943;51.410;7.564;2022-12-07T19:20:48;99938.50;;;6.07;69.14
46223;BME280;31943;51.410;7.564;2022-12-07T19:23:15;99938.53;;;6.09;69.39
46223;BME280;31943;51.410;7.564;2022-12-07T19:25:41;99937.47;;;6.01;69.25
46223;BME280;31943;51.410;7.564;2022-12-07T19:28:07;99936.56;;;5.99;69.65
46223;BME280;31943;51.410;7.564;2022-12-07T19:30:33;99936.72;;;6.05;69.75
46223;BME280;31943;51.410;7.564;2022-12-07T19:32:59;99935.84;;;6.04;69.57
46223;BME280;31943;51.410;7.564;2022-12-07T19:35:24;99936.81;;;6.09;69.67
46223;BME280;31943;51.410;7.564;2022-12-07T19:37:52;99924.44;;;5.96;69.54
46223;BME280;31943;51.410;7.564;2022-12-07T19:40:19;99926.66;;;5.82;69.94
46223;BME280;31943;51.410;7.564;2022-12-07T19:42:45;99925.81;;;5.83;69.93